• Join FlightAware (Why Join?)
  • Login
  • US Flag 
07:04AM EDT


 

Airport Tracker/Info


-or-


 

Live Flight TrackerFlight Track Log ✈ N779NC ✈ 10-Jul-2013 ✈ KAVL - KATL

Flight Track Log - Related Links

Times and Time Zones

All times are in EDT time to prevent confusion due to time zone crossing. See the N779NC flight status page for this flight to view local times or setup timezone preferences in your user account.

Time Position Orientation Groundspeed Altitude Reporting Facility
EDT Latitude Longitude Course Direction KTS MPH feet Rate Location/Type
08:22AM 35.2997 -82.4942 223° Southwest 259 298 5,000  Level Atlanta Center
08:23AM 35.2356 -82.5436 212° Southwest 298 343 6,400 1,920 Climbing Atlanta Center
08:24AM 35.1653 -82.6083 217° Southwest 298 343 8,900 1,860 Climbing Atlanta Center
08:25AM 35.1056 -82.6703 220° Southwest 293 337 10,200 1,200 Climbing Atlanta Center
08:26AM 35.1003 -82.8735 223° Southwest  Level FlightAware Approximate
08:26AM 35.0333 -82.7528 223° Southwest 321 369 11,400  Level Atlanta Center
08:27AM 35.0475 -82.9338 223° Southwest  Level FlightAware Approximate
08:27AM 34.9675 -82.8272 223° Southwest 349 402 13,200  Level Atlanta Center
08:28AM 34.8911 -82.9144 223° Southwest 367 422 14,700 1,500 Climbing Atlanta Center
08:29AM 34.8294 -83.0139 233° Southwest 376 433 16,200 1,500 Climbing Atlanta Center
08:30AM 34.7675 -83.1183 234° Southwest 381 438 17,700 1,260 Climbing Atlanta Center
08:31AM 34.7014 -83.2278 234° Southwest 394 453 18,800 480 Climbing Atlanta Center
08:32AM 34.6356 -83.3394 234° Southwest 408 470 18,700 -540 Descending Atlanta Center
08:33AM 34.5442 -83.4361 221° Southwest 402 463 17,800 -1,320 Descending Atlanta Center
08:34AM 34.4483 -83.5047 211° Southwest 400 460 16,100 -1,620 Descending Atlanta Center
08:35AM 34.3631 -83.5733 214° Southwest 391 450 14,600 -1,500 Descending Atlanta Center
08:36AM 34.2842 -83.6517 219° Southwest 370 426 13,100 -1,080 Descending Atlanta Center
08:37AM 34.2072 -83.7197 216° Southwest 356 410 12,500 -600 Descending Atlanta Center
08:38AM 34.1217 -83.7878 213° Southwest 367 422 12,000 -300 Descending Atlanta Center
08:39AM 34.0447 -83.8683 221° Southwest 378 435 11,900 -720 Descending Atlanta Center
08:40AM 33.9833 -83.9500 228° Southwest 330 380 10,600 -1,080 Descending Atlanta TRACON
08:41AM 33.9000 -83.9667 189° South 290 334 9,900 -660 Descending Atlanta TRACON
08:42AM 33.8333 -83.9833 192° South 273 314 9,300 -1,020 Descending Atlanta TRACON
08:43AM 33.7500 -84.0000 189° South 270 311 7,900 -1,260 Descending Atlanta TRACON
08:44AM 33.6833 -84.0167 192° South 265 305 6,800 -900 Descending Atlanta TRACON
08:45AM 33.6333 -84.0667 220° Southwest 227 261 6,200 -780 Descending Atlanta TRACON
08:46AM 33.6333 -84.1500 270° West 236 272 5,200 -1,080 Descending Atlanta TRACON
08:47AM 33.6333 -84.2167 270° West 204 235 4,100 -1,080 Descending Atlanta TRACON
08:48AM 33.6333 -84.2833 270° West 183 211 3,200 -960 Descending Atlanta TRACON
08:49AM 33.6333 -84.3333 270° West 180 207 2,200 -900 Descending Atlanta TRACON
08:50AM 33.6333 -84.3833 270° West 145 167 1,500 -720 Descending Atlanta TRACON
08:52AM 33.6333 -84.4167 270° West  Level FlightAware Approximate
08:59AM 33.6367 -84.4279 270° West  Level Estimated